CheckWX is a tool to help pilots better visualize weather data.  It is not intended as a substitute for an official pre-flight weather briefing.

17:26:39 UTC

DNAA TAF
Nnamdi Azikiwe International Airport
Abuja, Nigeria
TAF DNAA 041700Z 0418/0524 28003KT 9999 FEW012 PROB30 TEMPO 0420/0424 TS FEW010 FEW018CB BECMG 0500/0502 16010KT BECMG 0508/0510 24006KT BKN010

Jul-4@
18:00 UTC

Jul-4 @ 18:00 UTC

Jul-5@
00:00 UTC

Jul-5 @ 00:00 UTC

TAF DNAA 041700Z 0418/0524 28003KT 9999 FEW012

Expired

Wind
  • 280° at 3 KTS
Cloud Levels
  • Few at 1,200' AGL

Jul-4@
20:00 UTC

Jul-4 @ 20:00 UTC

Jul-5@
00:00 UTC

Jul-5 @ 00:00 UTC

PROB30 TEMPO 0420/0424 TS FEW010 FEW018CB

Expired

Conditions
Thunderstorm
Cloud Levels
  • Few at 1,000' AGL
  • Few at 1,800' AGL

Jul-5@
00:00 UTC

Jul-5 @ 00:00 UTC

Jul-5@
08:00 UTC

Jul-5 @ 08:00 UTC

BECMG 0500/0502 16010KT

Expired

Wind
  • 160° at 10 KTS
Cloud Levels
  • Few at 1,200' AGL

Jul-5@
08:00 UTC

Jul-5 @ 08:00 UTC

Jul-6@
00:00 UTC

Jul-6 @ 00:00 UTC

BECMG 0508/0510 24006KT BKN010

Becoming

Becoming Conditions expected by Sun, Jul 5, 2020 @ 10:00 UTC

Wind
  • 240° at 6 KTS
Cloud Levels
  • Broken at 1,000' AGL